createdAt,value
2018-09-26T00:00:32.550Z,1023.6
2018-09-26T00:01:54.406Z,1023.5
2018-09-26T00:02:55.762Z,1023.5
2018-09-26T00:03:57.111Z,1023.5
2018-09-26T00:04:58.462Z,1023.5
2018-09-26T00:05:59.943Z,1023.6
2018-09-26T00:07:01.290Z,1023.6
2018-09-26T00:08:02.649Z,1023.6
2018-09-26T00:09:04.016Z,1023.5
2018-09-26T00:10:05.365Z,1023.5
2018-09-26T00:11:06.716Z,1023.5
2018-09-26T00:12:08.071Z,1023.4
2018-09-26T00:13:09.420Z,1023.4
2018-09-26T00:14:10.767Z,1023.3
2018-09-26T00:15:12.117Z,1023.3
2018-09-26T00:16:13.470Z,1023.3
2018-09-26T00:17:14.823Z,1023.3
2018-09-26T00:18:16.183Z,1023.2
2018-09-26T00:19:17.535Z,1023.2
2018-09-26T00:20:18.896Z,1023.2
2018-09-26T00:21:20.248Z,1023.2
2018-09-26T00:22:21.619Z,1023.2
2018-09-26T00:23:22.959Z,1023.2
2018-09-26T00:24:24.316Z,1023.1
2018-09-26T00:25:25.681Z,1023.1
2018-09-26T00:26:27.023Z,1023.1
2018-09-26T00:27:28.384Z,1023.1
2018-09-26T00:28:29.725Z,1023.0
2018-09-26T00:29:31.091Z,1022.9
2018-09-26T00:30:32.441Z,1022.9
2018-09-26T00:31:33.802Z,1022.9
2018-09-26T00:32:35.160Z,1022.9
2018-09-26T00:33:36.502Z,1022.8
2018-09-26T00:34:37.860Z,1022.8
2018-09-26T00:35:39.252Z,1022.8
2018-09-26T00:36:40.562Z,1022.9
2018-09-26T00:37:41.952Z,1022.8
2018-09-26T00:38:43.275Z,1022.9
2018-09-26T00:39:44.637Z,1022.9
2018-09-26T00:40:45.989Z,1022.9
2018-09-26T00:41:47.355Z,1022.9
2018-09-26T00:42:48.708Z,1022.9
2018-09-26T00:43:50.068Z,1022.9
2018-09-26T00:44:51.432Z,1022.8
2018-09-26T00:45:52.779Z,1022.9
2018-09-26T00:46:54.144Z,1022.8
2018-09-26T00:47:55.496Z,1022.8
2018-09-26T00:48:56.852Z,1022.8
2018-09-26T00:49:58.203Z,1022.8
2018-09-26T00:50:59.553Z,1022.8
2018-09-26T00:52:00.913Z,1022.7
2018-09-26T00:53:02.280Z,1022.7
2018-09-26T00:54:03.627Z,1022.7
2018-09-26T00:55:04.997Z,1022.7
2018-09-26T00:56:06.347Z,1022.7
2018-09-26T00:57:07.696Z,1022.7
2018-09-26T00:58:09.053Z,1022.6
2018-09-26T00:59:10.401Z,1022.6
2018-09-26T01:00:11.763Z,1022.6
2018-09-26T01:01:13.111Z,1022.6
2018-09-26T01:02:14.459Z,1022.6
2018-09-26T01:03:15.811Z,1022.7
2018-09-26T01:04:17.161Z,1022.7
2018-09-26T01:05:18.512Z,1022.6
2018-09-26T01:06:19.866Z,1022.6
2018-09-26T01:07:21.223Z,1022.6
2018-09-26T01:08:22.572Z,1022.6
2018-09-26T01:09:23.926Z,1022.5
2018-09-26T01:10:25.269Z,1022.5
2018-09-26T01:11:26.626Z,1022.6
2018-09-26T01:12:27.972Z,1022.5
2018-09-26T01:13:29.336Z,1022.6
2018-09-26T01:14:30.682Z,1022.5
2018-09-26T01:15:32.037Z,1022.6
2018-09-26T01:16:33.392Z,1022.5
2018-09-26T01:17:34.737Z,1022.5
2018-09-26T01:18:36.089Z,1022.6
2018-09-26T01:19:37.445Z,1022.5
2018-09-26T01:20:38.794Z,1022.6
2018-09-26T01:21:40.169Z,1022.5
2018-09-26T01:22:41.506Z,1022.5
2018-09-26T01:23:42.860Z,1022.6
2018-09-26T01:24:44.213Z,1022.6
2018-09-26T01:25:45.559Z,1022.6
2018-09-26T01:26:46.936Z,1022.5
2018-09-26T01:27:48.274Z,1022.6
2018-09-26T01:28:49.619Z,1022.6
2018-09-26T01:29:50.972Z,1022.6
2018-09-26T01:30:52.320Z,1022.6
2018-09-26T01:31:53.663Z,1022.5
2018-09-26T01:32:55.013Z,1022.6
2018-09-26T01:33:56.378Z,1022.5
2018-09-26T01:34:57.728Z,1022.5
2018-09-26T01:35:59.076Z,1022.5
2018-09-26T01:37:00.428Z,1022.5
2018-09-26T01:38:01.908Z,1022.4
2018-09-26T01:39:03.258Z,1022.5
2018-09-26T01:40:04.609Z,1022.4
2018-09-26T01:41:05.967Z,1022.4
2018-09-26T01:42:07.309Z,1022.4
2018-09-26T01:43:08.664Z,1022.4
2018-09-26T01:44:10.023Z,1022.3
2018-09-26T01:45:11.385Z,1022.4
2018-09-26T01:46:12.722Z,1022.3
2018-09-26T01:47:14.073Z,1022.2
2018-09-26T01:48:15.432Z,1022.3
2018-09-26T01:49:16.788Z,1022.3
2018-09-26T01:50:18.136Z,1022.2
2018-09-26T01:51:19.492Z,1022.2
2018-09-26T01:52:20.843Z,1022.1
2018-09-26T01:53:22.199Z,1022.2
2018-09-26T01:54:23.545Z,1022.2
2018-09-26T01:55:24.903Z,1022.2
2018-09-26T01:56:26.252Z,1022.2
2018-09-26T01:57:27.608Z,1022.2
2018-09-26T01:58:28.958Z,1022.3
2018-09-26T01:59:30.293Z,1022.3
2018-09-26T02:00:31.665Z,1022.3
2018-09-26T02:01:33.012Z,1022.3
2018-09-26T02:02:34.363Z,1022.3
2018-09-26T02:03:35.713Z,1022.3
2018-09-26T02:04:37.067Z,1022.3
2018-09-26T02:05:38.431Z,1022.2
2018-09-26T02:06:39.779Z,1022.3
2018-09-26T02:07:41.134Z,1022.3
2018-09-26T02:08:42.481Z,1022.3
2018-09-26T02:09:43.833Z,1022.2
2018-09-26T02:10:45.189Z,1022.3
2018-09-26T02:11:46.538Z,1022.3
2018-09-26T02:12:47.886Z,1022.3
2018-09-26T02:13:49.235Z,1022.3
2018-09-26T02:14:50.579Z,1022.3
2018-09-26T02:15:51.931Z,1022.3
2018-09-26T02:16:53.279Z,1022.3
2018-09-26T02:17:54.640Z,1022.3
2018-09-26T02:18:55.996Z,1022.3
2018-09-26T02:19:57.342Z,1022.3
2018-09-26T02:20:58.694Z,1022.2
2018-09-26T02:22:00.032Z,1022.3
2018-09-26T02:23:01.392Z,1022.3
2018-09-26T02:24:02.742Z,1022.3
2018-09-26T02:25:04.088Z,1022.3
2018-09-26T02:26:05.452Z,1022.2
2018-09-26T02:27:06.803Z,1022.3
2018-09-26T02:28:08.159Z,1022.3
2018-09-26T02:29:09.503Z,1022.3
2018-09-26T02:30:10.859Z,1022.4
2018-09-26T02:31:12.218Z,1022.5
2018-09-26T02:32:13.564Z,1022.4
2018-09-26T02:33:14.913Z,1022.5
2018-09-26T02:34:16.256Z,1022.4
2018-09-26T02:35:17.611Z,1022.4
2018-09-26T02:36:18.962Z,1022.4
2018-09-26T02:37:20.313Z,1022.4
2018-09-26T02:38:21.664Z,1022.3
2018-09-26T02:39:23.013Z,1022.4
2018-09-26T02:40:24.389Z,1022.4
2018-09-26T02:41:25.738Z,1022.4
2018-09-26T02:42:27.094Z,1022.4
2018-09-26T02:43:28.450Z,1022.4
2018-09-26T02:44:29.794Z,1022.4
2018-09-26T02:45:31.152Z,1022.4
2018-09-26T02:46:32.502Z,1022.3
2018-09-26T02:47:33.853Z,1022.3
2018-09-26T02:48:35.203Z,1022.3
2018-09-26T02:49:36.554Z,1022.3
2018-09-26T02:50:37.911Z,1022.3
2018-09-26T02:51:39.254Z,1022.2
2018-09-26T02:52:40.617Z,1022.3
2018-09-26T02:53:41.977Z,1022.2
2018-09-26T02:54:43.319Z,1022.2
2018-09-26T02:55:44.710Z,1022.2
2018-09-26T02:56:45.998Z,1022.2
2018-09-26T02:57:47.343Z,1022.2
2018-09-26T02:58:48.745Z,1022.2
2018-09-26T02:59:50.058Z,1022.2
2018-09-26T03:00:51.405Z,1022.3
2018-09-26T03:01:52.763Z,1022.3
2018-09-26T03:02:54.119Z,1022.2
2018-09-26T03:03:55.475Z,1022.3
2018-09-26T03:04:56.843Z,1022.2
2018-09-26T03:05:58.200Z,1022.2
2018-09-26T03:06:59.562Z,1022.2
2018-09-26T03:08:00.914Z,1022.2
2018-09-26T03:09:02.389Z,1022.2
2018-09-26T03:10:03.739Z,1022.2
2018-09-26T03:11:05.115Z,1022.1
2018-09-26T03:12:06.434Z,1022.1
2018-09-26T03:13:07.793Z,1022.1
2018-09-26T03:14:09.148Z,1022.1
2018-09-26T03:15:10.503Z,1022.1
2018-09-26T03:16:11.854Z,1022.1
2018-09-26T03:17:13.200Z,1022.1
2018-09-26T03:18:14.549Z,1022.1
2018-09-26T03:19:15.922Z,1022.1
2018-09-26T03:20:17.264Z,1022.1
2018-09-26T03:21:18.632Z,1022.0
2018-09-26T03:22:19.988Z,1022.0
2018-09-26T03:23:21.344Z,1022.0
2018-09-26T03:24:22.685Z,1021.9
2018-09-26T03:25:24.048Z,1021.9
2018-09-26T03:26:25.408Z,1021.8
2018-09-26T03:27:26.752Z,1021.8
2018-09-26T03:28:28.113Z,1021.7
2018-09-26T03:29:29.468Z,1021.8
2018-09-26T03:30:30.819Z,1021.7
2018-09-26T03:31:32.169Z,1021.7
2018-09-26T03:32:33.520Z,1021.8
2018-09-26T03:33:34.917Z,1021.8
2018-09-26T03:34:36.217Z,1021.8
2018-09-26T03:35:37.582Z,1021.8
2018-09-26T03:36:38.939Z,1021.8
2018-09-26T03:37:40.292Z,1021.9
2018-09-26T03:38:41.643Z,1021.9
2018-09-26T03:39:43.052Z,1021.9
2018-09-26T03:40:44.299Z,1021.9
2018-09-26T03:41:45.654Z,1021.9
2018-09-26T03:42:47.009Z,1021.8
2018-09-26T03:43:48.359Z,1021.8
2018-09-26T03:44:49.728Z,1021.8
2018-09-26T03:45:51.069Z,1021.8
2018-09-26T03:46:52.425Z,1021.8
2018-09-26T03:47:53.778Z,1021.8
2018-09-26T03:48:55.140Z,1021.8
2018-09-26T03:49:56.494Z,1021.8
2018-09-26T03:50:57.853Z,1021.8
2018-09-26T03:51:59.204Z,1021.8
2018-09-26T03:53:00.564Z,1021.8
2018-09-26T03:54:01.909Z,1021.8
2018-09-26T03:55:03.269Z,1021.8
2018-09-26T03:56:04.623Z,1021.8
2018-09-26T03:57:05.974Z,1021.8
2018-09-26T03:58:07.316Z,1021.8
2018-09-26T03:59:08.689Z,1021.8
2018-09-26T04:00:10.032Z,1021.8
2018-09-26T04:01:11.383Z,1021.8
2018-09-26T04:02:12.739Z,1021.9
2018-09-26T04:03:14.096Z,1021.9
2018-09-26T04:04:15.450Z,1021.8
2018-09-26T04:05:16.804Z,1021.9
2018-09-26T04:06:18.166Z,1021.9
2018-09-26T04:07:19.515Z,1021.8
2018-09-26T04:08:20.890Z,1021.9
2018-09-26T04:09:22.232Z,1021.8
2018-09-26T04:10:23.581Z,1021.8
2018-09-26T04:11:24.940Z,1021.8
2018-09-26T04:12:26.301Z,1021.8
2018-09-26T04:13:27.649Z,1021.8
2018-09-26T04:14:29.010Z,1021.8
2018-09-26T04:15:30.360Z,1021.8
2018-09-26T04:16:31.709Z,1021.8
2018-09-26T04:17:33.069Z,1021.7
2018-09-26T04:18:34.428Z,1021.7
2018-09-26T04:19:35.783Z,1021.7
2018-09-26T04:20:37.149Z,1021.7
2018-09-26T04:21:38.507Z,1021.7
2018-09-26T04:22:39.850Z,1021.7
2018-09-26T04:23:41.213Z,1021.8
2018-09-26T04:24:42.557Z,1021.8
2018-09-26T04:25:43.906Z,1021.8
2018-09-26T04:26:45.438Z,1021.8
2018-09-26T04:27:46.684Z,1021.8
2018-09-26T04:28:47.970Z,1021.8
2018-09-26T04:29:49.442Z,1021.8
2018-09-26T04:30:50.788Z,1021.8
2018-09-26T04:31:52.140Z,1021.8
2018-09-26T04:32:53.531Z,1021.7
2018-09-26T04:33:54.896Z,1021.7
2018-09-26T04:34:56.213Z,1021.7
2018-09-26T04:35:57.560Z,1021.6
2018-09-26T04:36:58.918Z,1021.7
2018-09-26T04:38:00.268Z,1021.7
2018-09-26T04:39:01.613Z,1021.7
2018-09-26T04:40:02.975Z,1021.7
2018-09-26T04:41:04.328Z,1021.7
2018-09-26T04:42:05.685Z,1021.7
2018-09-26T04:43:07.077Z,1021.7
2018-09-26T04:44:08.394Z,1021.7
2018-09-26T04:45:09.751Z,1021.6
2018-09-26T04:46:11.099Z,1021.6
2018-09-26T04:47:12.458Z,1021.6
2018-09-26T04:48:13.809Z,1021.6
2018-09-26T04:49:15.168Z,1021.6
2018-09-26T04:50:16.518Z,1021.6
2018-09-26T04:51:17.879Z,1021.6
2018-09-26T04:52:19.242Z,1021.6
2018-09-26T04:53:20.591Z,1021.6
2018-09-26T04:54:21.943Z,1021.6
2018-09-26T04:55:23.300Z,1021.5
2018-09-26T04:56:24.653Z,1021.6
2018-09-26T04:57:26.015Z,1021.6
2018-09-26T04:58:27.373Z,1021.6
2018-09-26T04:59:28.716Z,1021.6
2018-09-26T05:00:30.078Z,1021.6
2018-09-26T05:01:31.425Z,1021.6
2018-09-26T05:02:32.780Z,1021.6
2018-09-26T05:03:34.128Z,1021.6
2018-09-26T05:04:35.480Z,1021.6
2018-09-26T05:05:36.841Z,1021.5
2018-09-26T05:06:38.210Z,1021.5
2018-09-26T05:07:39.585Z,1021.5
2018-09-26T05:08:40.938Z,1021.4
2018-09-26T05:09:42.307Z,1021.5
2018-09-26T05:10:43.645Z,1021.5
2018-09-26T05:11:44.998Z,1021.5
2018-09-26T05:12:46.358Z,1021.5
2018-09-26T05:13:47.709Z,1021.5
2018-09-26T05:14:49.095Z,1021.6
2018-09-26T05:15:50.423Z,1021.6
2018-09-26T05:16:51.789Z,1021.6
2018-09-26T05:17:53.143Z,1021.7
2018-09-26T05:18:54.500Z,1021.7
2018-09-26T05:19:55.874Z,1021.8
2018-09-26T05:20:57.220Z,1021.8
2018-09-26T05:21:58.580Z,1021.8
2018-09-26T05:22:59.954Z,1021.8
2018-09-26T05:24:01.330Z,1021.9
2018-09-26T05:25:02.688Z,1021.9
2018-09-26T05:26:04.039Z,1021.8
2018-09-26T05:27:05.394Z,1021.9
2018-09-26T05:28:06.753Z,1021.9
2018-09-26T05:29:08.121Z,1021.9
2018-09-26T05:30:09.485Z,1021.8
2018-09-26T05:31:10.835Z,1021.8
2018-09-26T05:32:12.198Z,1021.8
2018-09-26T05:33:13.541Z,1021.8
2018-09-26T05:34:14.896Z,1021.8
2018-09-26T05:35:16.246Z,1021.9
2018-09-26T05:36:17.599Z,1021.9
2018-09-26T05:37:18.954Z,1021.9
2018-09-26T05:38:20.309Z,1021.9
2018-09-26T05:39:21.676Z,1022.0
2018-09-26T05:40:23.031Z,1022.0
2018-09-26T05:41:25.109Z,1022.0
2018-09-26T05:42:26.474Z,1022.0
2018-09-26T05:43:27.826Z,1022.1
2018-09-26T05:44:29.177Z,1022.1
2018-09-26T05:45:30.541Z,1022.1
2018-09-26T05:46:31.896Z,1022.1
2018-09-26T05:47:33.264Z,1022.0
2018-09-26T05:48:34.617Z,1022.1
2018-09-26T05:49:35.981Z,1022.1
2018-09-26T05:50:37.342Z,1022.1
2018-09-26T05:51:38.691Z,1022.1
2018-09-26T05:52:40.066Z,1022.0
2018-09-26T05:53:41.444Z,1022.0
2018-09-26T05:54:42.798Z,1022.0
2018-09-26T05:55:44.158Z,1022.0
2018-09-26T05:56:45.510Z,1021.9
2018-09-26T05:57:46.886Z,1021.8
2018-09-26T05:58:48.284Z,1021.9
2018-09-26T05:59:49.640Z,1021.9
2018-09-26T06:00:51.001Z,1021.9
2018-09-26T06:01:52.359Z,1021.9
2018-09-26T06:02:53.705Z,1021.8
2018-09-26T06:03:55.072Z,1021.8
2018-09-26T06:04:56.421Z,1021.8
2018-09-26T06:05:57.773Z,1021.8
2018-09-26T06:06:59.149Z,1021.8
2018-09-26T06:08:00.520Z,1021.8
2018-09-26T06:09:01.865Z,1021.8
2018-09-26T06:10:03.235Z,1021.8
2018-09-26T06:11:04.590Z,1021.9
2018-09-26T06:12:05.953Z,1021.8
2018-09-26T06:13:07.387Z,1021.8
2018-09-26T06:14:08.636Z,1021.8
2018-09-26T06:15:10.015Z,1021.8
2018-09-26T06:16:11.371Z,1021.8
2018-09-26T06:17:12.728Z,1021.7
2018-09-26T06:18:14.080Z,1021.8
2018-09-26T06:19:15.439Z,1021.8
2018-09-26T06:20:16.814Z,1021.8
2018-09-26T06:21:18.172Z,1021.8
2018-09-26T06:22:19.530Z,1021.7
2018-09-26T06:23:20.884Z,1021.8
2018-09-26T06:24:22.236Z,1021.8
2018-09-26T06:25:23.599Z,1021.8
2018-09-26T06:26:24.961Z,1021.9
2018-09-26T06:27:26.331Z,1021.8
2018-09-26T06:28:27.704Z,1022.0
2018-09-26T06:29:29.050Z,1021.9
2018-09-26T06:30:30.405Z,1022.0
2018-09-26T06:31:31.751Z,1021.9
2018-09-26T06:32:33.130Z,1022.0
2018-09-26T06:33:34.504Z,1022.0
2018-09-26T06:34:35.866Z,1022.2
2018-09-26T06:35:37.214Z,1022.2
2018-09-26T06:36:38.570Z,1022.2
2018-09-26T06:37:39.936Z,1022.1
2018-09-26T06:38:41.289Z,1022.2
2018-09-26T06:39:42.656Z,1022.2
2018-09-26T06:40:44.022Z,1022.2
2018-09-26T06:41:45.385Z,1022.2
2018-09-26T06:42:46.740Z,1022.3
2018-09-26T06:43:48.120Z,1022.3
2018-09-26T06:44:49.475Z,1022.2
2018-09-26T06:45:50.844Z,1022.3
2018-09-26T06:46:52.218Z,1022.2
2018-09-26T06:47:53.586Z,1022.3
2018-09-26T06:48:54.940Z,1022.3
2018-09-26T06:49:56.310Z,1022.2
2018-09-26T06:50:57.686Z,1022.3
2018-09-26T06:51:59.065Z,1022.3
2018-09-26T06:53:00.430Z,1022.4
2018-09-26T06:54:01.805Z,1022.4
2018-09-26T06:55:03.145Z,1022.3
2018-09-26T06:56:04.511Z,1022.5
2018-09-26T06:57:05.872Z,1022.5
2018-09-26T06:58:07.241Z,1022.5
2018-09-26T06:59:08.603Z,1022.4
2018-09-26T07:00:09.981Z,1022.5
2018-09-26T07:01:11.286Z,1022.4
2018-09-26T07:02:12.647Z,1022.4
2018-09-26T07:03:14.036Z,1022.5
2018-09-26T07:04:15.392Z,1022.3
2018-09-26T07:05:16.761Z,1022.4
2018-09-26T07:06:18.126Z,1022.4
2018-09-26T07:07:19.495Z,1022.5
2018-09-26T07:08:20.860Z,1022.6
2018-09-26T07:09:22.239Z,1022.6
2018-09-26T07:10:23.597Z,1022.6
2018-09-26T07:11:24.960Z,1022.6
2018-09-26T07:12:26.336Z,1022.7
2018-09-26T07:13:27.705Z,1022.6
2018-09-26T07:14:29.090Z,1022.6
2018-09-26T07:15:30.444Z,1022.6
2018-09-26T07:16:31.821Z,1022.7
2018-09-26T07:17:33.186Z,1022.6
2018-09-26T07:18:34.564Z,1022.7
2018-09-26T07:19:35.926Z,1022.7
2018-09-26T07:20:37.292Z,1022.6
2018-09-26T07:21:38.666Z,1022.6
2018-09-26T07:22:40.025Z,1022.7
2018-09-26T07:23:41.419Z,1022.6
2018-09-26T07:24:42.781Z,1022.7
2018-09-26T07:25:44.147Z,1022.6
2018-09-26T07:26:45.501Z,1022.7
2018-09-26T07:27:46.897Z,1022.6
2018-09-26T07:28:48.280Z,1022.6
2018-09-26T07:29:49.647Z,1022.6
2018-09-26T07:30:51.028Z,1022.7
2018-09-26T07:31:52.378Z,1022.6
2018-09-26T07:32:53.741Z,1022.6
2018-09-26T07:33:55.117Z,1022.6
2018-09-26T07:34:56.476Z,1022.7
2018-09-26T07:35:57.849Z,1022.7
2018-09-26T07:36:59.207Z,1022.7
2018-09-26T07:38:00.572Z,1022.6
2018-09-26T07:39:01.947Z,1022.7
2018-09-26T07:40:03.305Z,1022.6
2018-09-26T07:41:04.677Z,1022.6
2018-09-26T07:42:06.038Z,1022.6
2018-09-26T07:43:07.396Z,1022.7
2018-09-26T07:44:08.754Z,1022.7
2018-09-26T07:45:10.119Z,1022.6
2018-09-26T07:46:11.486Z,1022.6
2018-09-26T07:47:12.858Z,1022.6
2018-09-26T07:48:14.217Z,1022.6
2018-09-26T07:49:15.597Z,1022.6
2018-09-26T07:50:16.958Z,1022.7
2018-09-26T07:51:18.322Z,1022.6
2018-09-26T07:52:19.696Z,1022.6
2018-09-26T07:53:21.062Z,1022.6
2018-09-26T07:54:22.426Z,1022.7
2018-09-26T07:55:23.793Z,1022.7
2018-09-26T07:56:25.170Z,1022.8
2018-09-26T07:57:26.521Z,1022.8
2018-09-26T07:58:27.896Z,1022.8
2018-09-26T07:59:29.271Z,1022.8
2018-09-26T08:00:30.654Z,1022.8
2018-09-26T08:01:32.022Z,1022.7
2018-09-26T08:02:33.403Z,1022.7
2018-09-26T08:03:34.767Z,1022.7
2018-09-26T08:04:36.138Z,1022.6
2018-09-26T08:05:37.520Z,1022.6
2018-09-26T08:07:18.379Z,1022.6
2018-09-26T08:08:19.755Z,1022.7
2018-09-26T08:09:21.126Z,1022.7
2018-09-26T08:10:22.493Z,1022.7
2018-09-26T08:11:23.937Z,1022.7
2018-09-26T08:12:25.207Z,1022.7
2018-09-26T08:13:26.572Z,1022.8
2018-09-26T08:14:27.954Z,1022.8
2018-09-26T08:15:29.323Z,1022.8
2018-09-26T08:16:30.697Z,1022.8
2018-09-26T08:17:32.081Z,1022.9
2018-09-26T08:18:33.491Z,1022.8
2018-09-26T08:19:34.787Z,1022.8
2018-09-26T08:20:36.157Z,1022.9
2018-09-26T08:21:37.532Z,1022.9
2018-09-26T08:22:38.916Z,1023.0
2018-09-26T08:23:40.300Z,1023.0
2018-09-26T08:24:41.668Z,1023.0
2018-09-26T08:25:43.042Z,1022.9
2018-09-26T08:26:44.424Z,1022.8
2018-09-26T08:27:45.798Z,1022.8
2018-09-26T08:28:47.177Z,1022.9
2018-09-26T08:29:48.795Z,1022.8
2018-09-26T08:30:50.079Z,1022.8
2018-09-26T08:31:51.460Z,1022.8
2018-09-26T08:32:52.848Z,1022.7
2018-09-26T08:33:54.216Z,1022.8
2018-09-26T08:34:55.597Z,1022.7
2018-09-26T08:35:56.966Z,1022.7
2018-09-26T08:36:58.347Z,1022.8
2018-09-26T08:37:59.716Z,1022.8
2018-09-26T08:39:01.101Z,1022.8
2018-09-26T08:40:02.474Z,1022.9
2018-09-26T08:41:03.837Z,1023.0
2018-09-26T08:42:05.207Z,1023.0
2018-09-26T08:43:06.592Z,1023.0
2018-09-26T08:44:07.960Z,1023.0
2018-09-26T08:45:09.336Z,1023.0
2018-09-26T08:46:11.412Z,1023.2
2018-09-26T08:47:13.774Z,1023.2
2018-09-26T08:48:16.191Z,1023.2
2018-09-26T08:49:17.557Z,1023.1
2018-09-26T08:50:18.932Z,1023.1
2018-09-26T08:51:20.306Z,1023.1
2018-09-26T08:52:21.668Z,1023.1
2018-09-26T08:53:23.057Z,1023.1
2018-09-26T08:54:24.433Z,1023.1
2018-09-26T08:55:25.822Z,1023.1
2018-09-26T08:56:27.295Z,1023.1
2018-09-26T08:57:28.676Z,1023.1
2018-09-26T08:58:30.052Z,1023.1
2018-09-26T08:59:31.476Z,1023.1
2018-09-26T09:00:32.800Z,1023.1
2018-09-26T09:01:34.178Z,1023.1
2018-09-26T09:02:35.566Z,1023.1
2018-09-26T09:03:36.948Z,1023.1
2018-09-26T09:04:38.328Z,1023.0
2018-09-26T09:05:39.695Z,1023.0
2018-09-26T09:06:41.097Z,1022.9
2018-09-26T09:07:42.480Z,1022.9
2018-09-26T09:08:43.854Z,1022.9
2018-09-26T09:09:45.240Z,1022.9
2018-09-26T09:10:46.617Z,1022.8
2018-09-26T09:11:48.064Z,1022.9
2018-09-26T09:12:49.562Z,1023.0
2018-09-26T09:13:50.939Z,1023.0
2018-09-26T09:14:52.530Z,1022.9
2018-09-26T09:15:53.698Z,1022.9
2018-09-26T09:16:55.072Z,1023.0
2018-09-26T09:17:56.556Z,1022.9
2018-09-26T09:18:57.792Z,1022.9
2018-09-26T09:19:59.180Z,1022.9
2018-09-26T09:21:00.551Z,1022.9
2018-09-26T09:22:01.955Z,1022.9
2018-09-26T09:23:03.336Z,1022.8
2018-09-26T09:24:04.718Z,1022.8
2018-09-26T09:25:06.098Z,1022.7
2018-09-26T09:26:07.519Z,1022.7
2018-09-26T09:27:08.891Z,1022.7
2018-09-26T09:28:10.195Z,1022.7
2018-09-26T09:29:11.593Z,1022.8
2018-09-26T09:30:12.977Z,1022.7
2018-09-26T09:31:14.360Z,1022.7
2018-09-26T09:32:15.753Z,1022.7
2018-09-26T09:33:17.112Z,1022.8
2018-09-26T09:34:18.573Z,1022.7
2018-09-26T09:35:19.982Z,1022.6
2018-09-26T09:36:21.362Z,1022.6
2018-09-26T09:37:22.738Z,1022.7
2018-09-26T09:38:24.252Z,1022.7
2018-09-26T09:39:25.459Z,1022.6
2018-09-26T09:40:26.833Z,1022.6
2018-09-26T09:41:28.218Z,1022.7
2018-09-26T09:42:29.607Z,1022.6
2018-09-26T09:43:30.978Z,1022.7
2018-09-26T09:44:32.426Z,1022.7
2018-09-26T09:45:33.743Z,1022.7
2018-09-26T09:46:35.113Z,1022.7
2018-09-26T09:47:36.493Z,1022.7
2018-09-26T09:48:37.868Z,1022.7
2018-09-26T09:49:39.252Z,1022.7
2018-09-26T09:50:40.660Z,1022.7
2018-09-26T09:51:42.069Z,1022.6
2018-09-26T09:52:43.436Z,1022.7
2018-09-26T09:53:44.819Z,1022.7
2018-09-26T09:54:46.191Z,1022.6
2018-09-26T09:55:47.576Z,1022.6
2018-09-26T09:56:48.957Z,1022.5
2018-09-26T09:57:50.338Z,1022.7
2018-09-26T09:58:51.721Z,1022.7
2018-09-26T09:59:53.100Z,1022.7
2018-09-26T10:00:54.472Z,1022.6
2018-09-26T10:01:55.860Z,1022.7
2018-09-26T10:02:57.361Z,1022.7
2018-09-26T10:03:58.576Z,1022.6
2018-09-26T10:04:59.975Z,1022.7
2018-09-26T10:06:01.349Z,1022.7
2018-09-26T10:07:02.728Z,1022.6
2018-09-26T10:08:04.099Z,1022.5
2018-09-26T10:09:07.916Z,1022.6
2018-09-26T10:10:09.287Z,1022.6
2018-09-26T10:11:11.226Z,1022.6
2018-09-26T10:12:12.598Z,1022.6
2018-09-26T10:13:14.007Z,1022.6
2018-09-26T10:14:15.407Z,1022.6
2018-09-26T10:15:16.778Z,1022.6
2018-09-26T10:16:18.559Z,1022.6
2018-09-26T10:17:20.115Z,1022.6
2018-09-26T10:18:21.500Z,1022.5
2018-09-26T10:19:22.871Z,1022.5
2018-09-26T10:20:24.294Z,1022.6
2018-09-26T10:21:25.597Z,1022.5
2018-09-26T10:22:26.982Z,1022.5
2018-09-26T10:23:28.348Z,1022.5
2018-09-26T10:24:29.725Z,1022.5
2018-09-26T10:25:31.111Z,1022.5
2018-09-26T10:26:32.494Z,1022.6
2018-09-26T10:27:33.857Z,1022.7
2018-09-26T10:28:35.256Z,1022.7
2018-09-26T10:29:36.636Z,1022.7
2018-09-26T10:30:38.003Z,1022.7
2018-09-26T10:31:39.394Z,1022.7
2018-09-26T10:32:40.758Z,1022.7
2018-09-26T10:33:42.156Z,1022.6
2018-09-26T10:34:43.583Z,1022.6
2018-09-26T10:35:44.947Z,1022.5
2018-09-26T10:36:46.338Z,1022.5
2018-09-26T10:37:47.708Z,1022.5
2018-09-26T10:38:49.104Z,1022.5
2018-09-26T10:39:50.473Z,1022.5
2018-09-26T10:40:51.867Z,1022.5
2018-09-26T10:41:53.225Z,1022.5
2018-09-26T10:42:54.612Z,1022.3
2018-09-26T10:43:56.004Z,1022.4
2018-09-26T10:44:57.376Z,1022.4
2018-09-26T10:45:58.756Z,1022.4
2018-09-26T10:47:00.142Z,1022.4
2018-09-26T10:48:01.511Z,1022.5
2018-09-26T10:49:02.899Z,1022.5
2018-09-26T10:50:04.303Z,1022.5
2018-09-26T10:51:05.663Z,1022.5
2018-09-26T10:52:07.049Z,1022.5
2018-09-26T10:53:08.428Z,1022.5
2018-09-26T10:54:09.819Z,1022.5
2018-09-26T10:55:11.189Z,1022.5
2018-09-26T10:56:12.615Z,1022.4
2018-09-26T10:57:13.974Z,1022.4
2018-09-26T10:58:17.754Z,1022.4
2018-09-26T10:59:19.130Z,1022.4
2018-09-26T11:00:20.513Z,1022.4
2018-09-26T11:01:21.889Z,1022.4
2018-09-26T11:02:23.334Z,1022.4
2018-09-26T11:03:24.659Z,1022.3
2018-09-26T11:04:26.103Z,1022.4
2018-09-26T11:05:27.394Z,1022.2
2018-09-26T11:06:28.767Z,1022.3
2018-09-26T11:07:30.146Z,1022.4
2018-09-26T11:08:31.543Z,1022.3
2018-09-26T11:09:32.914Z,1022.3
2018-09-26T11:10:34.295Z,1022.3
2018-09-26T11:11:35.667Z,1022.2
2018-09-26T11:12:37.080Z,1022.2
2018-09-26T11:13:38.430Z,1022.2
2018-09-26T11:14:39.804Z,1022.2
2018-09-26T11:15:41.194Z,1022.3
2018-09-26T11:16:42.576Z,1022.2
2018-09-26T11:17:43.942Z,1022.3
2018-09-26T11:18:45.375Z,1022.2
2018-09-26T11:19:46.702Z,1022.3
2018-09-26T11:20:48.088Z,1022.2
2018-09-26T11:21:49.467Z,1022.3
2018-09-26T11:22:50.859Z,1022.3
2018-09-26T11:23:52.234Z,1022.3
2018-09-26T11:24:53.624Z,1022.2
2018-09-26T11:25:55.014Z,1022.2
2018-09-26T11:26:56.400Z,1022.1
2018-09-26T11:27:57.787Z,1022.1
2018-09-26T11:28:59.169Z,1022.1
2018-09-26T11:30:00.549Z,1022.0
2018-09-26T11:31:01.940Z,1022.1
2018-09-26T11:32:03.325Z,1022.2
2018-09-26T11:33:04.713Z,1022.2
2018-09-26T11:34:06.090Z,1022.1
2018-09-26T11:35:07.477Z,1022.2
2018-09-26T11:36:08.879Z,1022.2
2018-09-26T11:37:10.323Z,1022.1
2018-09-26T11:38:11.687Z,1022.2
2018-09-26T11:39:13.029Z,1022.1
2018-09-26T11:40:14.461Z,1022.2
2018-09-26T11:41:15.808Z,1022.2
2018-09-26T11:42:17.183Z,1022.3
2018-09-26T11:43:18.559Z,1022.2
2018-09-26T11:44:19.990Z,1022.2
2018-09-26T11:45:21.330Z,1022.1
2018-09-26T11:46:22.819Z,1022.1
2018-09-26T11:47:24.053Z,1022.1
2018-09-26T11:48:25.439Z,1022.1
2018-09-26T11:49:26.833Z,1022.1
2018-09-26T11:50:28.194Z,1022.0
2018-09-26T11:51:29.587Z,1022.1
2018-09-26T11:52:30.969Z,1022.2
2018-09-26T11:53:32.354Z,1022.2
2018-09-26T11:54:33.752Z,1022.2
2018-09-26T11:55:35.137Z,1022.0
2018-09-26T11:56:36.518Z,1022.0
2018-09-26T11:57:37.880Z,1021.9
2018-09-26T11:58:39.261Z,1022.0
2018-09-26T11:59:41.328Z,1021.9
2018-09-26T12:00:42.729Z,1021.9
2018-09-26T12:01:44.095Z,1022.0
2018-09-26T12:02:45.650Z,1022.0
2018-09-26T12:03:46.964Z,1021.9
2018-09-26T12:04:48.460Z,1022.0
2018-09-26T12:05:49.824Z,1022.0
2018-09-26T12:06:51.219Z,1022.0
2018-09-26T12:07:52.588Z,1022.1
2018-09-26T12:08:53.973Z,1022.1
2018-09-26T12:09:55.403Z,1021.9
2018-09-26T12:10:56.783Z,1022.0
2018-09-26T12:11:58.174Z,1021.9
2018-09-26T12:12:59.559Z,1021.9
2018-09-26T12:14:00.924Z,1021.9
2018-09-26T12:15:02.315Z,1021.9
2018-09-26T12:16:03.703Z,1021.8
2018-09-26T12:17:05.093Z,1021.8
2018-09-26T12:18:06.644Z,1021.7
2018-09-26T12:19:08.006Z,1021.7
2018-09-26T12:20:09.385Z,1021.7
2018-09-26T12:21:10.769Z,1021.6
2018-09-26T12:22:12.224Z,1021.6
2018-09-26T12:23:13.497Z,1021.6
2018-09-26T12:24:14.945Z,1021.6
2018-09-26T12:25:16.259Z,1021.6
2018-09-26T12:26:17.553Z,1021.6
2018-09-26T12:27:18.948Z,1021.7
2018-09-26T12:28:20.379Z,1021.6
2018-09-26T12:29:22.290Z,1021.6
2018-09-26T12:30:23.726Z,1021.6
2018-09-26T12:31:25.055Z,1021.6
2018-09-26T12:32:26.440Z,1021.6
2018-09-26T12:33:27.820Z,1021.6
2018-09-26T12:34:29.215Z,1021.6
2018-09-26T12:35:30.604Z,1021.6
2018-09-26T12:36:31.985Z,1021.7
2018-09-26T12:37:33.392Z,1021.5
2018-09-26T12:38:34.784Z,1021.6
2018-09-26T12:39:36.163Z,1021.5
2018-09-26T12:40:37.544Z,1021.5
2018-09-26T12:41:38.935Z,1021.6
2018-09-26T12:42:40.372Z,1021.5
2018-09-26T12:43:41.800Z,1021.5
2018-09-26T12:44:43.181Z,1021.5
2018-09-26T12:45:44.560Z,1021.5
2018-09-26T12:46:46.066Z,1021.5